Aeroporto :
LOGIN :

Iscrizione | Disclaimer

   EN    FR    IT 

 










Sommario :    VFR   VFR Marginale   IFR   IFR Intensivo   IFR Molto Intensivo
Visibilità : 
Base nubi : 
>= 8 km
>= 3000ft
5 / 8 km
1000 / 3000 ft
1500m / 5 km
500 / 1000 ft
800 / 1500m
200 / 500 ft
< 800m
< 200 ft
Simboli :   Temporali  Nebbia  Neve Forte  Precipitazioni Forti  Vento > 20 kt
SIGMETs :   Varie  Temporali  Ghiacco  Turbolenza  Onda orograficha  Ceneri Vulcaniche






- Altitudine del aeroporto : 90 ft
- Codice IATA : NTE


LFRS - Nantes

ULTIMO METAR :
  • 190630Z AUTO 03006KT 350V060 CAVOK 02/00 Q1037 NOSIG

METARs OBSOLETI :
  • 190600Z AUTO 03006KT 350V060 CAVOK 02/00 Q1036 NOSIG
  • 190530Z AUTO 04007KT 360V070 CAVOK 03/00 Q1036 NOSIG
  • 190500Z AUTO 03008KT CAVOK 03/00 Q1035 NOSIG
  • 190430Z AUTO 03007KT 360V060 CAVOK 03/00 Q1035 NOSIG
  • 190400Z AUTO 03007KT 360V060 CAVOK 03/01 Q1035 NOSIG

TAF TAF LFRS
Valido dal 19 a 06 ore il 20 a 12 ore UTC


190500Z 1906/2012 04010KT CAVOK
ATIS : +33 2 40 05 12 74



MetMap, La meteo Aeronautica in un colpo d'occhio ! - Copyright ORBIFLY Dicembre 2007 - Disclaimer

ORBIFLY MET'MAP TEAM :

Programmazione e sviluppo : Alexandra Zaïnal
Concezione : Baudouin d'Aumeries
Aiuto per la programmazione : Marc-Olivier Méhu
Supporto tecnico e logistico : Manuel Goepfert
Aiuto per la traduzione : Arnaldo La Scala

Contatto : metmap@orbifly.com




FONTI E CREDITI :

   NOAA